createdAt,value
2019-02-21T00:02:45.002Z,12.80
2019-02-21T00:07:35.735Z,11.80
2019-02-21T00:12:25.487Z,12.80
2019-02-21T00:17:17.167Z,13.60
2019-02-21T00:22:09.170Z,11.60
2019-02-21T00:27:01.074Z,11.20
2019-02-21T00:31:53.035Z,13.10
2019-02-21T00:36:43.053Z,12.40
2019-02-21T00:41:33.826Z,12.00
2019-02-21T00:46:23.833Z,14.10
2019-02-21T00:51:13.322Z,12.10
2019-02-21T00:56:05.446Z,16.40
2019-02-21T01:00:57.338Z,11.80
2019-02-21T01:05:49.304Z,13.20
2019-02-21T01:10:41.431Z,13.90
2019-02-21T01:15:33.004Z,13.00
2019-02-21T01:20:24.841Z,14.00
2019-02-21T01:25:16.811Z,14.70
2019-02-21T01:30:08.531Z,13.30
2019-02-21T01:35:00.355Z,14.30
2019-02-21T01:39:52.110Z,14.00
2019-02-21T01:44:43.773Z,17.20
2019-02-21T01:49:35.936Z,15.90
2019-02-21T01:54:24.475Z,13.80
2019-02-21T01:59:15.902Z,14.40
2019-02-21T02:04:06.613Z,13.60
2019-02-21T02:08:56.368Z,13.60
2019-02-21T02:13:47.683Z,13.70
2019-02-21T02:18:37.630Z,12.40
2019-02-21T02:23:30.703Z,12.20
2019-02-21T02:28:20.818Z,11.30
2019-02-21T02:33:12.763Z,9.70
2019-02-21T02:38:04.650Z,10.90
2019-02-21T02:42:56.551Z,11.50
2019-02-21T02:47:48.618Z,10.70
2019-02-21T02:53:10.132Z,12.70
2019-02-21T02:58:07.570Z,10.70
2019-02-21T03:02:57.011Z,10.40
2019-02-21T03:07:48.814Z,10.00
2019-02-21T03:12:40.343Z,10.30
2019-02-21T03:17:32.310Z,11.10
2019-02-21T03:22:24.292Z,9.00
2019-02-21T03:27:16.088Z,10.70
2019-02-21T03:32:08.522Z,10.40
2019-02-21T03:37:00.537Z,10.20
2019-02-21T03:41:52.613Z,10.30
2019-02-21T03:46:44.494Z,10.20
2019-02-21T03:51:36.036Z,11.60
2019-02-21T03:56:27.837Z,12.10
2019-02-21T04:01:19.910Z,10.90
2019-02-21T04:06:11.304Z,10.30
2019-02-21T04:11:03.846Z,11.10
2019-02-21T04:15:55.767Z,10.40
2019-02-21T04:20:49.812Z,11.10
2019-02-21T04:25:42.655Z,12.70
2019-02-21T04:30:33.500Z,11.10
2019-02-21T04:35:28.618Z,12.70
2019-02-21T04:40:22.199Z,13.10
2019-02-21T04:45:14.202Z,12.20
2019-02-21T04:50:19.931Z,16.80
2019-02-21T04:55:23.823Z,16.60
2019-02-21T05:00:13.059Z,13.20
2019-02-21T05:05:05.952Z,12.90
2019-02-21T05:10:00.777Z,15.00
2019-02-21T05:14:52.059Z,11.70
2019-02-21T05:19:42.101Z,12.60
2019-02-21T05:24:33.945Z,15.00
2019-02-21T05:29:23.127Z,12.70
2019-02-21T05:34:11.174Z,11.60
2019-02-21T05:39:02.119Z,12.40
2019-02-21T05:43:52.067Z,14.40
2019-02-21T05:48:49.739Z,15.50
2019-02-21T05:53:37.734Z,14.90
2019-02-21T05:58:27.957Z,15.00
2019-02-21T06:03:19.464Z,16.50
2019-02-21T06:08:08.499Z,15.00
2019-02-21T06:13:00.532Z,15.90
2019-02-21T06:17:49.774Z,15.90
2019-02-21T06:22:40.219Z,15.30
2019-02-21T06:27:30.464Z,16.30
2019-02-21T06:32:23.822Z,15.20
2019-02-21T06:37:15.122Z,13.40
2019-02-21T06:42:04.543Z,16.60
2019-02-21T06:47:01.637Z,18.60
2019-02-21T06:51:53.006Z,17.60
2019-02-21T06:56:42.346Z,17.70
2019-02-21T07:01:32.751Z,16.00
2019-02-21T07:06:31.698Z,15.70
2019-02-21T07:11:20.572Z,16.40
2019-02-21T07:16:12.797Z,15.90
2019-02-21T07:21:03.518Z,17.60
2019-02-21T07:26:11.354Z,21.40
2019-02-21T07:31:02.090Z,19.60
2019-02-21T07:36:08.026Z,21.80
2019-02-21T07:41:07.871Z,20.70
2019-02-21T07:45:57.845Z,19.50
2019-02-21T07:50:48.170Z,17.40
2019-02-21T07:55:45.941Z,19.60
2019-02-21T08:00:34.447Z,20.50
2019-02-21T08:05:25.901Z,17.70
2019-02-21T08:10:33.021Z,17.70
2019-02-21T08:15:22.395Z,16.80
2019-02-21T08:20:16.484Z,16.30
2019-02-21T08:25:19.104Z,19.30
2019-02-21T08:30:09.470Z,15.60
2019-02-21T08:35:01.874Z,16.10
2019-02-21T08:39:52.146Z,18.40
2019-02-21T08:44:45.804Z,17.30
2019-02-21T08:49:44.486Z,18.40
2019-02-21T08:54:33.183Z,15.40
2019-02-21T08:59:22.928Z,17.20
2019-02-21T09:04:26.670Z,19.20
2019-02-21T09:09:16.891Z,18.40
2019-02-21T09:14:08.674Z,21.60
2019-02-21T09:19:00.042Z,19.20
2019-02-21T09:23:52.255Z,17.40
2019-02-21T09:28:44.276Z,19.70
2019-02-21T09:33:51.541Z,20.50
2019-02-21T09:38:56.936Z,20.90
2019-02-21T09:44:01.837Z,22.40
2019-02-21T09:49:07.117Z,22.40
2019-02-21T09:54:14.876Z,20.80
2019-02-21T09:59:07.918Z,20.40
2019-02-21T10:03:57.899Z,18.80
2019-02-21T10:09:03.914Z,21.20
2019-02-21T10:14:11.041Z,21.50
2019-02-21T10:19:13.318Z,22.60
2019-02-21T10:24:16.989Z,23.30
2019-02-21T10:29:20.657Z,23.90
2019-02-21T10:34:23.863Z,21.60
2019-02-21T10:39:27.281Z,22.20
2019-02-21T10:44:32.178Z,21.10
2019-02-21T10:49:39.134Z,20.30
2019-02-21T10:54:45.509Z,21.30
2019-02-21T10:59:49.291Z,19.40
2019-02-21T11:04:55.571Z,17.60
2019-02-21T11:09:59.395Z,17.60
2019-02-21T11:15:05.813Z,14.70
2019-02-21T11:20:10.492Z,16.60
2019-02-21T11:25:16.361Z,15.10
2019-02-21T11:30:22.602Z,15.60
2019-02-21T11:35:28.196Z,14.70
2019-02-21T11:40:32.942Z,14.00
2019-02-21T11:45:38.613Z,15.40
2019-02-21T11:50:41.791Z,13.90
2019-02-21T11:55:31.328Z,13.10
2019-02-21T12:00:38.251Z,11.80
2019-02-21T12:05:44.474Z,14.30
2019-02-21T12:10:51.532Z,13.30
2019-02-21T12:15:56.153Z,14.30
2019-02-21T12:21:04.087Z,13.90
2019-02-21T12:25:53.279Z,12.10
2019-02-21T12:30:59.955Z,10.60
2019-02-21T12:36:06.047Z,9.20
2019-02-21T12:41:09.965Z,11.40
2019-02-21T12:46:14.723Z,11.30
2019-02-21T12:51:12.582Z,8.80
2019-02-21T12:56:16.304Z,10.10
2019-02-21T13:01:19.597Z,12.20
2019-02-21T13:06:22.862Z,12.40
2019-02-21T13:11:12.399Z,10.70
2019-02-21T13:16:16.567Z,11.90
2019-02-21T13:21:05.343Z,10.60
2019-02-21T13:26:10.669Z,12.30
2019-02-21T13:31:15.833Z,12.60
2019-02-21T13:36:19.915Z,13.20
2019-02-21T13:41:24.881Z,13.20
2019-02-21T13:46:37.044Z,12.00
2019-02-21T13:51:44.055Z,12.50
2019-02-21T13:56:47.481Z,14.00
2019-02-21T14:01:51.221Z,13.60
2019-02-21T14:06:54.282Z,13.10
2019-02-21T14:11:58.007Z,12.60
2019-02-21T14:17:00.485Z,13.00
2019-02-21T14:22:04.476Z,13.20
2019-02-21T14:27:09.344Z,12.80
2019-02-21T14:32:14.015Z,13.70
2019-02-21T14:37:18.590Z,14.20
2019-02-21T14:42:07.264Z,12.70
2019-02-21T14:46:58.343Z,12.00
2019-02-21T14:52:04.606Z,13.40
2019-02-21T14:57:08.953Z,14.40
2019-02-21T15:02:13.177Z,14.40
2019-02-21T15:07:16.501Z,14.30
2019-02-21T15:12:20.397Z,13.30
2019-02-21T15:17:24.600Z,14.60
2019-02-21T15:22:28.048Z,13.70
2019-02-21T15:27:29.778Z,14.20
2019-02-21T15:32:34.088Z,13.80
2019-02-21T15:37:39.764Z,13.70
2019-02-21T15:42:43.342Z,13.50
2019-02-21T15:47:48.131Z,14.70
2019-02-21T15:52:53.675Z,15.20
2019-02-21T15:58:04.614Z,15.10
2019-02-21T16:03:07.784Z,14.20
2019-02-21T16:08:05.845Z,13.90
2019-02-21T16:13:10.435Z,14.00
2019-02-21T16:18:19.760Z,15.00
2019-02-21T16:23:23.413Z,15.40
2019-02-21T16:28:27.110Z,16.80
2019-02-21T16:33:31.553Z,15.50
2019-02-21T16:38:35.204Z,15.30
2019-02-21T16:43:33.085Z,14.70
2019-02-21T16:48:38.747Z,15.80
2019-02-21T16:53:41.486Z,16.30
2019-02-21T16:58:47.141Z,16.20
2019-02-21T17:03:45.608Z,15.00
2019-02-21T17:08:53.825Z,14.80
2019-02-21T17:13:57.473Z,15.60
2019-02-21T17:18:47.373Z,14.40
2019-02-21T17:23:46.649Z,12.80
2019-02-21T17:28:52.255Z,15.30
2019-02-21T17:33:41.078Z,15.90
2019-02-21T17:38:40.411Z,15.70
2019-02-21T17:43:48.390Z,16.50
2019-02-21T17:48:52.010Z,17.70
2019-02-21T17:53:55.734Z,18.50
2019-02-21T17:59:00.165Z,18.70
2019-02-21T18:04:03.713Z,18.50
2019-02-21T18:09:08.581Z,20.30
2019-02-21T18:14:06.826Z,20.60
2019-02-21T18:19:11.903Z,21.80
2019-02-21T18:24:15.535Z,21.80
2019-02-21T18:29:04.201Z,21.40
2019-02-21T18:33:55.098Z,23.30
2019-02-21T18:38:56.043Z,21.80
2019-02-21T18:44:00.093Z,23.70
2019-02-21T18:49:03.715Z,21.40
2019-02-21T18:54:07.735Z,22.10
2019-02-21T18:59:11.404Z,21.40
2019-02-21T19:04:14.229Z,21.70
2019-02-21T19:09:03.135Z,19.80
2019-02-21T19:14:08.867Z,21.70
2019-02-21T19:19:13.498Z,21.70
2019-02-21T19:24:17.092Z,21.20
2019-02-21T19:29:20.411Z,19.80
2019-02-21T19:34:25.879Z,20.10
2019-02-21T19:39:14.923Z,18.00
2019-02-21T19:44:20.703Z,20.20
2019-02-21T19:49:24.985Z,20.90
2019-02-21T19:54:13.499Z,18.90
2019-02-21T19:59:20.458Z,21.80
2019-02-21T20:04:24.470Z,22.80
2019-02-21T20:09:27.870Z,21.30
2019-02-21T20:14:25.607Z,20.60
2019-02-21T20:19:30.427Z,20.60
2019-02-21T20:24:33.682Z,21.40
2019-02-21T20:29:37.049Z,19.10
2019-02-21T20:34:23.903Z,17.50
2019-02-21T20:39:30.110Z,19.80
2019-02-21T20:44:35.568Z,19.70
2019-02-21T20:49:39.986Z,19.20
2019-02-21T20:54:28.963Z,17.40
2019-02-21T20:59:35.218Z,19.80
2019-02-21T21:04:38.967Z,21.20
2019-02-21T21:09:42.507Z,22.60
2019-02-21T21:14:31.374Z,19.20
2019-02-21T21:19:19.620Z,17.10
2019-02-21T21:24:09.526Z,19.20
2019-02-21T21:29:01.427Z,20.50
2019-02-21T21:33:53.407Z,20.70
2019-02-21T21:38:54.845Z,25.40
2019-02-21T21:43:52.104Z,25.80
2019-02-21T21:48:56.549Z,29.20
2019-02-21T21:53:43.322Z,22.80
2019-02-21T21:58:33.352Z,24.10
2019-02-21T22:03:23.042Z,23.50
2019-02-21T22:08:29.436Z,30.90
2019-02-21T22:13:16.415Z,26.10
2019-02-21T22:18:24.679Z,32.70
2019-02-21T22:23:20.738Z,32.90
2019-02-21T22:28:19.428Z,32.40
2019-02-21T22:33:10.571Z,27.60
2019-02-21T22:38:03.054Z,28.20
2019-02-21T22:42:54.677Z,28.10
2019-02-21T22:48:00.335Z,33.00
2019-02-21T22:52:48.447Z,28.90
2019-02-21T22:57:41.314Z,29.80
2019-02-21T23:02:33.422Z,28.20
2019-02-21T23:07:31.290Z,32.30
2019-02-21T23:12:18.469Z,29.00
2019-02-21T23:17:27.232Z,35.50
2019-02-21T23:22:31.526Z,35.30
2019-02-21T23:27:33.058Z,35.50
2019-02-21T23:32:35.819Z,34.80
2019-02-21T23:37:40.633Z,36.70
2019-02-21T23:42:29.747Z,33.30
2019-02-21T23:47:21.151Z,29.50
2019-02-21T23:52:15.899Z,34.10
2019-02-21T23:57:07.740Z,30.30
